Time;durP1;ratioP1;P1;durP2;ratioP2;P2;SDS_P1;SDS_P2;PMS_P1;PMS_P2;Temp;Humidity;BMP_temperature;BMP_pressure;BME280_temperature;BME280_humidity;BME280_pressure;Samples;Min_cycle;Max_cycle;Signal;HPM_P1;HPM_P2
2023/04/19 00:02:03;;;;;;;12.70;12.20;;;20.10;55.50;;;;;;5083912;28;20816;-54
2023/04/19 00:04:30;;;;;;;12.07;11.70;;;20.10;55.50;;;;;;5071520;28;20515;-56
2023/04/19 00:06:57;;;;;;;13.53;13.03;;;20.10;55.60;;;;;;5080169;28;20535;-52
2023/04/19 00:09:24;;;;;;;11.93;11.43;;;20.00;55.50;;;;;;5051321;28;20496;-54
2023/04/19 00:11:52;;;;;;;12.90;12.33;;;20.10;55.60;;;;;;5051447;28;20480;-56
2023/04/19 00:14:19;;;;;;;12.50;12.10;;;20.10;55.60;;;;;;5087354;28;20475;-52
2023/04/19 00:16:47;;;;;;;12.90;12.50;;;20.10;55.60;;;;;;5078272;28;20447;-56
2023/04/19 00:19:14;;;;;;;12.40;12.00;;;20.00;55.60;;;;;;5083935;28;20491;-51
2023/04/19 00:21:41;;;;;;;12.43;12.03;;;20.00;55.60;;;;;;5075744;28;20875;-55
2023/04/19 00:24:08;;;;;;;12.37;11.97;;;20.00;55.60;;;;;;5079014;28;21143;-56
2023/04/19 00:26:35;;;;;;;12.40;11.90;;;20.00;55.70;;;;;;5082548;28;20467;-53
2023/04/19 00:29:01;;;;;;;12.50;12.10;;;20.00;55.70;;;;;;5082515;28;20475;-52
2023/04/19 00:31:28;;;;;;;12.70;12.30;;;20.00;55.70;;;;;;5083115;28;20480;-58
2023/04/19 00:33:57;;;;;;;12.13;11.63;;;20.00;55.80;;;;;;5097385;28;20436;-54
2023/04/19 00:36:25;;;;;;;13.60;13.00;;;20.00;55.80;;;;;;5088176;28;20469;-55
2023/04/19 00:38:52;;;;;;;12.00;11.60;;;20.00;55.80;;;;;;5088246;28;20493;-55
2023/04/19 00:41:19;;;;;;;12.57;12.13;;;20.00;55.80;;;;;;5074993;28;20482;-54
2023/04/19 00:43:46;;;;;;;11.77;11.40;;;20.00;55.90;;;;;;5089512;28;20565;-54
2023/04/19 00:46:14;;;;;;;12.10;11.70;;;19.90;55.80;;;;;;5087578;28;20542;-57
2023/04/19 00:48:41;;;;;;;11.83;11.43;;;19.90;55.80;;;;;;5081771;28;20455;-54
2023/04/19 00:51:10;;;;;;;12.70;12.10;;;19.90;55.80;;;;;;5090782;28;20501;-51
2023/04/19 00:53:38;;;;;;;12.10;11.70;;;19.90;55.80;;;;;;5077755;28;20981;-55
2023/04/19 00:56:06;;;;;;;12.10;11.60;;;19.90;55.90;;;;;;5092505;28;20481;-57
2023/04/19 00:58:33;;;;;;;11.57;11.27;;;19.90;55.90;;;;;;5079217;28;20478;-51
2023/04/19 01:01:00;;;;;;;12.67;12.20;;;19.90;55.90;;;;;;5088919;28;20545;-51
2023/04/19 01:03:28;;;;;;;12.30;11.90;;;19.90;55.90;;;;;;5078621;28;20514;-54
2023/04/19 01:05:55;;;;;;;12.53;12.10;;;19.80;55.80;;;;;;5088050;28;20511;-53
2023/04/19 01:08:24;;;;;;;12.23;11.83;;;19.80;55.80;;;;;;5086273;28;20969;-55
2023/04/19 01:10:51;;;;;;;13.00;12.47;;;19.90;55.90;;;;;;5085341;28;21042;-54
2023/04/19 01:13:17;;;;;;;12.03;11.60;;;19.80;55.90;;;;;;5083411;28;20593;-54
2023/04/19 01:15:44;;;;;;;12.00;11.60;;;19.90;56.00;;;;;;5081817;28;20525;-55
2023/04/19 01:18:12;;;;;;;12.60;12.20;;;19.80;55.90;;;;;;5076625;28;20482;-57
2023/04/19 01:20:39;;;;;;;11.43;11.03;;;19.80;55.90;;;;;;5089912;28;20473;-54
2023/04/19 01:23:10;;;;;;;11.40;11.10;;;19.80;56.00;;;;;;5075229;28;20888;-52
2023/04/19 01:25:37;;;;;;;12.33;11.90;;;19.80;56.00;;;;;;5074207;28;20447;-52
2023/04/19 01:28:04;;;;;;;12.57;12.07;;;19.80;56.60;;;;;;5086442;28;20528;-55
2023/04/19 01:30:31;;;;;;;11.90;11.60;;;19.80;56.10;;;;;;5082206;28;20478;-51
2023/04/19 01:32:58;;;;;;;11.97;11.57;;;19.80;56.20;;;;;;5080348;28;20478;-52
2023/04/19 01:35:25;;;;;;;11.77;11.40;;;19.70;56.10;;;;;;5083303;28;20482;-51
2023/04/19 01:37:54;;;;;;;12.90;12.47;;;19.70;56.20;;;;;;5088109;28;20525;-52
2023/04/19 01:40:23;;;;;;;11.60;11.20;;;19.70;56.20;;;;;;5077268;28;20498;-51
2023/04/19 01:42:50;;;;;;;12.00;11.60;;;19.70;56.20;;;;;;5092397;28;20497;-55
2023/04/19 01:45:17;;;;;;;11.53;11.23;;;19.70;56.20;;;;;;5090681;28;20511;-54
2023/04/19 01:47:44;;;;;;;11.50;11.10;;;19.70;56.20;;;;;;5086611;28;20454;-53
2023/04/19 01:50:11;;;;;;;10.83;10.50;;;19.70;56.30;;;;;;5076827;28;20917;-53
2023/04/19 01:52:38;;;;;;;12.53;12.13;;;19.70;56.30;;;;;;5089915;28;20481;-52
2023/04/19 01:55:05;;;;;;;11.87;11.47;;;19.70;56.30;;;;;;5081103;28;20525;-54
2023/04/19 01:57:33;;;;;;;11.73;11.33;;;19.70;56.30;;;;;;5092010;28;20969;-52
2023/04/19 02:00:01;;;;;;;11.90;11.50;;;19.70;56.40;;;;;;5074833;28;20562;-52
2023/04/19 02:02:27;;;;;;;12.27;11.80;;;19.70;56.40;;;;;;5083429;28;20478;-53
2023/04/19 02:04:54;;;;;;;13.33;12.83;;;19.70;56.40;;;;;;5087345;28;20516;-56
2023/04/19 02:07:21;;;;;;;11.23;10.93;;;19.70;56.40;;;;;;5084955;28;20478;-55
2023/04/19 02:09:48;;;;;;;12.03;11.63;;;19.70;56.40;;;;;;5093289;28;20502;-51
2023/04/19 02:12:16;;;;;;;11.70;11.40;;;19.70;56.30;;;;;;5076289;28;20486;-54
2023/04/19 02:14:44;;;;;;;11.80;11.40;;;19.70;56.30;;;;;;5093828;28;20525;-52
2023/04/19 02:17:11;;;;;;;11.80;11.40;;;19.70;56.30;;;;;;5085305;28;20439;-53
2023/04/19 02:19:38;;;;;;;11.57;11.17;;;19.70;56.30;;;;;;5073807;28;20459;-51
2023/04/19 02:22:05;;;;;;;11.63;11.00;;;19.70;56.30;;;;;;5073152;28;20498;-54
2023/04/19 02:24:32;;;;;;;11.90;11.40;;;19.70;56.40;;;;;;5075323;28;20517;-51
2023/04/19 02:26:58;;;;;;;12.00;11.40;;;19.70;56.50;;;;;;5080521;28;20522;-51
2023/04/19 02:29:25;;;;;;;13.27;12.70;;;19.70;56.50;;;;;;5081681;28;20545;-54
2023/04/19 02:31:54;;;;;;;12.20;11.80;;;19.70;56.50;;;;;;5083044;28;20451;-51
2023/04/19 02:34:20;;;;;;;11.10;10.80;;;19.70;56.50;;;;;;5086981;28;20941;-53
2023/04/19 02:36:47;;;;;;;11.47;11.17;;;19.70;56.50;;;;;;5075956;28;20988;-53
2023/04/19 02:39:15;;;;;;;12.60;12.10;;;19.70;56.60;;;;;;5084035;28;21014;-54
2023/04/19 02:41:42;;;;;;;11.43;11.03;;;19.70;56.60;;;;;;5083444;28;20468;-53
2023/04/19 02:44:09;;;;;;;11.23;10.93;;;19.70;56.60;;;;;;5077363;28;21040;-52
2023/04/19 02:46:36;;;;;;;12.70;12.27;;;19.70;56.70;;;;;;5088443;28;20443;-51
2023/04/19 02:49:04;;;;;;;12.03;11.63;;;19.70;56.70;;;;;;5078060;28;20482;-52
2023/04/19 02:51:31;;;;;;;11.67;11.30;;;19.70;56.80;;;;;;5092948;28;20529;-53
2023/04/19 02:53:58;;;;;;;11.80;11.30;;;19.70;56.80;;;;;;5077209;28;20479;-55
2023/04/19 02:56:25;;;;;;;12.07;11.60;;;19.70;56.80;;;;;;5079647;28;20522;-55
2023/04/19 02:58:53;;;;;;;12.63;12.20;;;19.70;56.80;;;;;;5073269;28;20485;-53
2023/04/19 03:01:20;;;;;;;11.60;11.17;;;19.70;56.80;;;;;;5090829;28;20457;-50
2023/04/19 03:03:47;;;;;;;13.07;12.60;;;19.70;56.80;;;;;;5075432;28;20565;-53
2023/04/19 03:06:15;;;;;;;13.20;12.70;;;19.60;56.80;;;;;;5092756;28;20482;-54
2023/04/19 03:08:42;;;;;;;12.53;12.03;;;19.70;56.80;;;;;;5072906;28;20483;-52
2023/04/19 03:11:10;;;;;;;11.87;11.57;;;19.60;56.80;;;;;;5084601;28;20538;-52
2023/04/19 03:13:38;;;;;;;11.80;11.40;;;19.70;56.90;;;;;;5072180;28;20530;-52
2023/04/19 03:16:06;;;;;;;12.50;12.10;;;19.60;56.80;;;;;;5091688;28;20447;-54
2023/04/19 03:18:33;;;;;;;11.30;10.90;;;19.70;56.90;;;;;;5090348;28;20457;-52
2023/04/19 03:21:00;;;;;;;12.23;11.83;;;19.70;56.90;;;;;;5072978;28;20502;-55
2023/04/19 03:23:28;;;;;;;11.93;11.53;;;19.60;56.90;;;;;;5072120;28;20443;-52
2023/04/19 03:25:55;;;;;;;11.60;11.20;;;19.60;56.90;;;;;;5074071;28;20913;-51
2023/04/19 03:28:22;;;;;;;12.57;12.07;;;19.60;56.90;;;;;;5088749;28;20493;-52
2023/04/19 03:30:49;;;;;;;11.80;11.40;;;19.60;56.90;;;;;;5074511;28;20503;-51
2023/04/19 03:33:16;;;;;;;11.07;10.77;;;19.60;56.90;;;;;;5071902;28;20813;-52
2023/04/19 03:35:44;;;;;;;11.03;10.73;;;19.60;57.00;;;;;;5072103;28;20551;-52
2023/04/19 03:38:11;;;;;;;12.10;11.50;;;19.60;57.00;;;;;;5074598;28;20536;-53
2023/04/19 03:40:39;;;;;;;11.30;10.90;;;19.60;57.00;;;;;;5078878;28;20501;-53
2023/04/19 03:43:06;;;;;;;11.20;10.80;;;19.60;57.00;;;;;;5080151;28;20478;-54
2023/04/19 03:45:33;;;;;;;11.50;11.20;;;19.60;57.00;;;;;;5071887;28;20570;-52
2023/04/19 03:48:00;;;;;;;12.67;12.27;;;19.60;57.00;;;;;;5083084;28;20485;-52
2023/04/19 03:50:26;;;;;;;11.47;11.07;;;19.60;57.60;;;;;;5077266;28;20495;-52
2023/04/19 03:52:53;;;;;;;11.60;11.20;;;19.60;57.00;;;;;;5077554;28;20529;-53
2023/04/19 03:55:20;;;;;;;13.30;12.70;;;19.60;57.10;;;;;;5081550;28;20475;-54
2023/04/19 03:57:49;;;;;;;11.27;10.87;;;19.60;57.20;;;;;;5077632;28;20474;-54
2023/04/19 04:00:16;;;;;;;11.70;11.33;;;19.60;57.10;;;;;;5081908;28;20884;-53
2023/04/19 04:02:43;;;;;;;11.80;11.40;;;19.50;57.10;;;;;;5079709;28;20481;-51
2023/04/19 04:05:10;;;;;;;11.87;11.47;;;19.60;57.80;;;;;;5079210;28;20479;-53
2023/04/19 04:07:37;;;;;;;12.57;12.17;;;19.60;57.20;;;;;;5078692;28;20976;-53
2023/04/19 04:10:04;;;;;;;11.83;11.43;;;19.60;57.20;;;;;;5080188;28;20506;-52
2023/04/19 04:12:31;;;;;;;11.93;11.53;;;19.60;57.30;;;;;;5077265;28;20529;-51
2023/04/19 04:15:00;;;;;;;12.60;12.10;;;19.60;57.30;;;;;;5081675;28;20478;-51
2023/04/19 04:17:27;;;;;;;12.17;11.77;;;19.60;57.30;;;;;;5078288;28;21136;-54
2023/04/19 04:19:53;;;;;;;11.37;10.97;;;19.50;57.40;;;;;;5081556;28;20553;-51
2023/04/19 04:22:20;;;;;;;11.33;10.93;;;19.60;57.40;;;;;;5071264;28;20531;-54
2023/04/19 04:24:48;;;;;;;11.47;11.07;;;19.50;57.30;;;;;;5078999;28;20562;-52
2023/04/19 04:27:19;;;;;;;11.70;11.30;;;19.50;57.30;;;;;;5078720;28;20533;-56
2023/04/19 04:29:46;;;;;;;11.37;11.07;;;19.60;57.50;;;;;;5085682;28;20554;-51
2023/04/19 04:32:16;;;;;;;12.70;12.30;;;19.60;57.50;;;;;;5080178;28;20446;-54
2023/04/19 04:34:44;;;;;;;13.43;12.93;;;19.60;57.60;;;;;;5083041;28;20447;-53
2023/04/19 04:37:11;;;;;;;12.43;11.93;;;19.60;57.60;;;;;;5078596;28;20817;-52
2023/04/19 04:39:38;;;;;;;13.30;12.90;;;19.50;57.70;;;;;;5078471;28;20502;-53
2023/04/19 04:42:07;;;;;;;13.27;12.87;;;19.50;57.70;;;;;;5087769;28;20472;-52
2023/04/19 04:44:34;;;;;;;11.73;11.33;;;19.50;57.80;;;;;;5084767;28;20474;-52
2023/04/19 04:47:01;;;;;;;13.77;13.27;;;19.50;57.80;;;;;;5078621;28;20956;-52
2023/04/19 04:49:30;;;;;;;13.50;12.80;;;19.50;57.80;;;;;;5076202;28;20602;-54
2023/04/19 04:51:57;;;;;;;13.13;12.63;;;19.60;57.90;;;;;;5091400;28;20576;-52
2023/04/19 04:54:24;;;;;;;11.80;11.40;;;19.60;57.70;;;;;;5086240;28;20849;-53
2023/04/19 04:56:51;;;;;;;14.57;13.60;;;19.60;57.70;;;;;;5070970;28;20459;-54
2023/04/19 04:59:18;;;;;;;14.30;13.23;;;19.60;58.20;;;;;;5075497;28;20553;-53
2023/04/19 05:01:45;;;;;;;14.00;13.20;;;19.60;59.00;;;;;;5083337;28;20535;-51
2023/04/19 05:04:11;;;;;;;14.80;13.53;;;19.70;60.00;;;;;;5077506;28;20521;-52
2023/04/19 05:06:40;;;;;;;31.30;14.30;;;19.70;61.30;;;;;;5089493;28;20473;-57
2023/04/19 05:09:07;;;;;;;15.57;14.13;;;19.70;61.50;;;;;;5090052;28;20484;-55
2023/04/19 05:11:34;;;;;;;22.35;13.77;;;19.70;62.20;;;;;;5078752;28;20437;-58
2023/04/19 05:14:01;;;;;;;17.00;13.37;;;19.70;66.30;;;;;;5074919;28;20494;-59
2023/04/19 05:16:28;;;;;;;14.20;13.00;;;19.70;66.10;;;;;;5074768;28;20528;-60
2023/04/19 05:18:55;;;;;;;13.23;12.40;;;19.80;66.00;;;;;;5074217;28;20530;-59
2023/04/19 05:21:22;;;;;;;16.43;13.20;;;19.80;65.60;;;;;;5074488;28;20454;-59
2023/04/19 05:23:52;;;;;;;15.37;12.67;;;19.80;65.00;;;;;;5074638;28;20529;-60
2023/04/19 05:26:19;;;;;;;14.27;13.00;;;19.80;64.90;;;;;;5074585;28;20483;-60
2023/04/19 05:28:46;;;;;;;12.70;11.90;;;19.80;64.40;;;;;;5074618;28;20871;-60
2023/04/19 05:31:13;;;;;;;13.20;12.50;;;19.80;64.00;;;;;;5074596;28;20510;-59
2023/04/19 05:33:40;;;;;;;13.73;12.70;;;19.80;63.60;;;;;;5074759;28;20994;-58
2023/04/19 05:36:07;;;;;;;14.80;13.73;;;19.80;63.30;;;;;;5074284;28;20498;-57
2023/04/19 05:38:34;;;;;;;13.10;12.47;;;19.80;63.20;;;;;;5073816;28;20486;-61
2023/04/19 05:41:03;;;;;;;14.17;13.23;;;19.80;62.70;;;;;;5133141;22;20513;-57
2023/04/19 05:43:30;;;;;;;12.23;11.63;;;19.80;62.60;;;;;;5099279;28;20504;-55
2023/04/19 05:45:58;;;;;;;13.63;12.50;;;19.80;62.30;;;;;;5098679;28;20482;-58
2023/04/19 05:48:25;;;;;;;12.43;11.73;;;19.80;62.00;;;;;;5098385;28;20511;-58
2023/04/19 05:50:53;;;;;;;11.87;11.27;;;19.90;61.90;;;;;;5097049;28;21075;-57
2023/04/19 05:53:21;;;;;;;12.13;11.37;;;19.90;61.70;;;;;;5096680;28;20520;-57
2023/04/19 05:55:49;;;;;;;13.73;12.83;;;19.90;62.30;;;;;;5096139;28;20445;-59
2023/04/19 05:58:18;;;;;;;13.40;12.40;;;19.90;61.40;;;;;;5095903;28;20450;-56
2023/04/19 06:00:45;;;;;;;11.30;10.63;;;19.90;61.20;;;;;;5096001;28;20473;-59
2023/04/19 06:03:12;;;;;;;12.10;11.53;;;19.90;61.10;;;;;;5096277;28;20446;-59
2023/04/19 06:05:40;;;;;;;13.90;13.00;;;19.90;61.00;;;;;;5095738;28;20487;-59
2023/04/19 06:08:08;;;;;;;12.43;11.73;;;19.90;60.80;;;;;;5095308;28;20466;-58
2023/04/19 06:10:35;;;;;;;13.33;12.33;;;19.90;60.60;;;;;;5096340;28;20501;-58
2023/04/19 06:13:02;;;;;;;10.63;9.93;;;19.90;60.60;;;;;;5095752;28;20482;-57
2023/04/19 06:15:30;;;;;;;12.70;11.77;;;19.90;60.50;;;;;;5095785;28;20476;-58
2023/04/19 06:17:57;;;;;;;12.77;11.80;;;19.90;60.40;;;;;;5095351;28;20528;-59
2023/04/19 06:20:24;;;;;;;12.03;11.23;;;19.90;60.20;;;;;;5095632;28;21003;-57
2023/04/19 06:22:51;;;;;;;12.43;11.80;;;19.90;60.20;;;;;;5095208;28;20884;-59
2023/04/19 06:25:18;;;;;;;14.17;12.83;;;19.90;60.20;;;;;;5095705;28;20517;-56
2023/04/19 06:27:45;;;;;;;11.70;11.17;;;19.90;60.10;;;;;;5095190;28;20442;-60
2023/04/19 06:30:12;;;;;;;12.67;11.97;;;19.90;60.00;;;;;;5095192;28;20498;-58
2023/04/19 06:32:40;;;;;;;12.47;11.87;;;19.90;59.90;;;;;;5094313;28;20482;-55
2023/04/19 06:35:08;;;;;;;12.50;11.60;;;19.90;59.90;;;;;;5093398;28;20491;-58
2023/04/19 06:37:35;;;;;;;11.70;11.23;;;19.90;59.80;;;;;;5094241;28;20442;-51
2023/04/19 06:40:03;;;;;;;12.77;12.07;;;19.90;59.80;;;;;;5094046;28;20505;-57
2023/04/19 06:42:30;;;;;;;12.17;11.57;;;19.90;59.80;;;;;;5095700;28;20529;-59
2023/04/19 06:44:58;;;;;;;13.23;12.53;;;19.90;59.80;;;;;;5093481;28;20482;-53
2023/04/19 06:47:25;;;;;;;13.43;12.40;;;19.90;59.70;;;;;;5093091;28;20525;-52
2023/04/19 06:49:54;;;;;;;12.10;11.40;;;19.90;59.70;;;;;;5092740;28;20467;-52
2023/04/19 06:52:20;;;;;;;12.33;11.63;;;19.90;59.60;;;;;;5093073;28;20453;-58
2023/04/19 06:54:48;;;;;;;11.70;10.90;;;19.90;59.50;;;;;;5094070;28;20996;-59
2023/04/19 06:57:16;;;;;;;12.30;11.70;;;19.90;59.50;;;;;;5093886;28;20465;-59
2023/04/19 06:59:44;;;;;;;12.13;11.40;;;19.90;59.60;;;;;;5094683;28;20494;-58
2023/04/19 07:02:11;;;;;;;13.03;12.43;;;19.90;59.50;;;;;;5094369;28;20515;-58
2023/04/19 07:04:38;;;;;;;12.20;11.60;;;19.90;59.50;;;;;;5094394;28;20780;-60
2023/04/19 07:07:06;;;;;;;12.40;11.80;;;19.90;59.40;;;;;;5093832;28;20514;-59
2023/04/19 07:09:33;;;;;;;13.70;13.00;;;19.90;59.50;;;;;;5094222;28;20442;-59
2023/04/19 07:12:00;;;;;;;12.17;11.67;;;19.90;59.30;;;;;;5094043;28;20478;-55
2023/04/19 07:14:27;;;;;;;12.13;11.63;;;19.90;59.30;;;;;;5093964;28;20967;-57
2023/04/19 07:16:55;;;;;;;11.80;11.30;;;19.90;59.30;;;;;;5093357;28;20446;-57
2023/04/19 07:19:22;;;;;;;11.67;11.17;;;19.90;59.20;;;;;;5093443;28;20470;-57
2023/04/19 07:21:49;;;;;;;12.13;11.63;;;20.00;59.20;;;;;;5093698;28;20933;-59
2023/04/19 07:24:18;;;;;;;12.10;11.43;;;19.90;59.10;;;;;;5093984;28;20478;-58
2023/04/19 07:26:45;;;;;;;12.70;12.03;;;19.90;59.00;;;;;;5093482;28;20569;-57
2023/04/19 07:29:12;;;;;;;12.10;11.30;;;19.90;59.00;;;;;;5092895;28;20474;-60
2023/04/19 07:31:40;;;;;;;11.70;11.10;;;20.00;59.00;;;;;;5093110;28;21019;-59
2023/04/19 07:34:07;;;;;;;11.40;10.90;;;20.00;58.90;;;;;;5093571;28;20524;-58
2023/04/19 07:36:35;;;;;;;12.20;11.70;;;20.00;58.90;;;;;;5093401;28;20442;-56
2023/04/19 07:39:03;;;;;;;12.13;11.47;;;20.00;58.90;;;;;;5093739;28;20442;-58
2023/04/19 07:41:31;;;;;;;10.90;10.60;;;20.00;58.80;;;;;;5093037;28;20636;-57
2023/04/19 07:43:58;;;;;;;11.67;11.17;;;20.00;58.80;;;;;;5092205;28;20473;-53
2023/04/19 07:46:25;;;;;;;12.70;12.10;;;20.00;58.80;;;;;;5091845;28;20569;-52
2023/04/19 07:48:52;;;;;;;11.90;11.30;;;20.00;58.70;;;;;;5091762;28;20470;-51
2023/04/19 07:51:19;;;;;;;11.87;11.17;;;20.00;58.70;;;;;;5091653;28;20493;-54
2023/04/19 07:53:46;;;;;;;12.17;11.67;;;20.00;58.60;;;;;;5092031;28;20813;-51
2023/04/19 07:56:14;;;;;;;12.30;11.80;;;20.00;58.60;;;;;;5091833;28;20949;-54
2023/04/19 07:58:42;;;;;;;12.77;12.17;;;20.00;58.50;;;;;;5091664;28;20815;-51
2023/04/19 08:01:09;;;;;;;11.13;10.70;;;20.00;58.50;;;;;;5091671;28;20545;-51
2023/04/19 08:03:36;;;;;;;12.03;11.33;;;20.00;58.40;;;;;;5091641;28;20529;-51
2023/04/19 08:06:06;;;;;;;11.20;10.90;;;20.00;58.40;;;;;;5091990;28;20470;-55
2023/04/19 08:08:32;;;;;;;11.63;11.23;;;20.00;58.40;;;;;;5092968;28;20454;-59
2023/04/19 08:11:00;;;;;;;12.40;12.00;;;20.00;58.30;;;;;;5092848;28;21000;-57
2023/04/19 08:13:27;;;;;;;12.00;11.57;;;20.00;58.30;;;;;;5092703;28;20473;-59
2023/04/19 08:15:55;;;;;;;12.13;11.73;;;20.00;58.30;;;;;;5092576;28;20485;-52
2023/04/19 08:18:22;;;;;;;11.37;10.87;;;20.00;58.20;;;;;;5091315;28;20493;-51
2023/04/19 08:20:49;;;;;;;11.87;11.40;;;20.00;58.20;;;;;;5091402;28;20498;-51
2023/04/19 08:23:17;;;;;;;12.53;11.93;;;20.00;58.20;;;;;;5091502;28;20481;-52
2023/04/19 08:25:43;;;;;;;12.17;11.77;;;20.00;58.20;;;;;;5091328;28;20514;-51
2023/04/19 08:28:11;;;;;;;12.60;12.10;;;20.00;58.20;;;;;;5091304;28;20466;-51
2023/04/19 08:30:38;;;;;;;12.20;11.80;;;20.00;58.10;;;;;;5091240;28;20545;-53
2023/04/19 08:33:06;;;;;;;12.13;11.73;;;20.00;58.10;;;;;;5091438;28;20478;-51
2023/04/19 08:35:35;;;;;;;13.70;13.03;;;20.00;58.10;;;;;;5091424;28;20475;-51
2023/04/19 08:38:03;;;;;;;12.53;12.13;;;20.00;58.00;;;;;;5091018;28;20450;-51
2023/04/19 08:40:30;;;;;;;11.90;11.60;;;20.00;58.00;;;;;;5091180;28;20573;-51
2023/04/19 08:42:57;;;;;;;12.00;11.60;;;20.00;58.00;;;;;;5094226;28;20517;-52
2023/04/19 08:45:27;;;;;;;12.13;11.77;;;20.00;58.00;;;;;;5095187;28;20457;-53
2023/04/19 08:47:55;;;;;;;12.60;12.20;;;20.00;58.00;;;;;;5095032;28;20488;-52
2023/04/19 08:50:24;;;;;;;12.07;11.60;;;20.00;58.00;;;;;;5095117;28;20546;-51
2023/04/19 08:52:51;;;;;;;12.00;11.50;;;20.00;57.90;;;;;;5095479;28;20446;-52
2023/04/19 08:55:18;;;;;;;12.30;11.90;;;20.00;57.90;;;;;;5095514;28;20859;-51
2023/04/19 08:57:45;;;;;;;12.63;12.03;;;20.00;57.80;;;;;;5095492;28;20482;-52
2023/04/19 09:00:13;;;;;;;12.03;11.43;;;20.00;57.80;;;;;;5096120;28;20980;-52
2023/04/19 09:02:47;;;;;;;12.47;11.93;;;20.00;57.80;;;;;;5096606;28;20539;-55
2023/04/19 09:05:16;;;;;;;13.60;13.00;;;20.00;57.70;;;;;;5097160;28;20448;-57
2023/04/19 09:07:45;;;;;;;12.23;11.83;;;20.00;57.70;;;;;;5096063;28;20489;-56
2023/04/19 09:10:13;;;;;;;12.60;12.20;;;20.00;57.70;;;;;;5096579;28;20558;-60
2023/04/19 09:12:41;;;;;;;12.90;12.40;;;20.00;57.70;;;;;;5096550;28;20849;-59
2023/04/19 09:15:09;;;;;;;12.70;12.30;;;19.90;57.60;;;;;;5096336;28;20470;-57
2023/04/19 09:17:37;;;;;;;12.40;12.00;;;19.90;57.60;;;;;;5096332;28;20438;-58
2023/04/19 09:20:05;;;;;;;12.57;12.17;;;20.00;57.70;;;;;;5096145;28;20498;-58
2023/04/19 09:22:33;;;;;;;13.43;13.03;;;19.90;57.70;;;;;;5096358;28;20466;-59
2023/04/19 09:25:01;;;;;;;12.90;12.40;;;20.00;57.70;;;;;;5096130;28;20985;-59
2023/04/19 09:27:30;;;;;;;13.60;13.10;;;20.00;57.70;;;;;;5095982;28;20891;-58
2023/04/19 09:29:58;;;;;;;12.67;12.17;;;20.00;57.70;;;;;;5095910;28;20497;-58
2023/04/19 09:32:25;;;;;;;12.60;12.10;;;20.00;57.70;;;;;;5095948;28;20801;-57
2023/04/19 09:34:54;;;;;;;12.73;12.33;;;20.00;57.60;;;;;;5096075;28;20469;-56
2023/04/19 09:37:21;;;;;;;12.67;12.27;;;20.00;57.60;;;;;;5095720;28;20485;-56
2023/04/19 09:39:48;;;;;;;13.80;13.30;;;20.00;57.70;;;;;;5095351;28;20890;-58
2023/04/19 09:42:18;;;;;;;13.53;12.77;;;20.00;58.00;;;;;;5095738;28;20867;-58
2023/04/19 09:44:56;;;;;;;12.33;11.93;;;20.00;57.50;;;;;;5095675;28;20446;-59
2023/04/19 09:47:24;;;;;;;12.53;12.13;;;20.00;57.40;;;;;;5095293;28;20500;-56
2023/04/19 09:50:05;;;;;;;12.43;12.03;;;20.00;57.40;;;;;;5095795;28;20699;-60
2023/04/19 09:52:33;;;;;;;13.57;13.07;;;20.00;57.40;;;;;;5094671;28;20441;-55
2023/04/19 09:55:02;;;;;;;12.30;12.00;;;20.00;57.40;;;;;;5094463;28;20442;-53
2023/04/19 09:57:31;;;;;;;12.77;12.37;;;20.00;57.40;;;;;;5094409;28;20439;-52
2023/04/19 09:59:59;;;;;;;12.50;12.10;;;20.00;57.30;;;;;;5094201;28;20549;-55
2023/04/19 10:02:31;;;;;;;12.80;12.40;;;20.10;57.30;;;;;;5094592;28;20493;-56
2023/04/19 10:04:58;;;;;;;12.90;12.50;;;20.00;57.20;;;;;;5094603;28;20449;-51
2023/04/19 10:07:26;;;;;;;13.10;12.70;;;20.00;57.20;;;;;;5094265;28;20474;-51
2023/04/19 10:09:56;;;;;;;14.20;13.80;;;20.00;57.20;;;;;;5104436;28;21018;-61
2023/04/19 10:12:25;;;;;;;14.57;14.13;;;20.10;57.30;;;;;;5111698;28;20872;-59
2023/04/19 10:14:56;;;;;;;13.63;13.13;;;20.00;57.30;;;;;;5113894;28;20453;-60
2023/04/19 10:17:24;;;;;;;14.10;13.60;;;20.10;57.40;;;;;;5113860;28;20442;-61
2023/04/19 10:19:57;;;;;;;13.97;13.47;;;20.10;57.50;;;;;;5101128;28;20470;-59
2023/04/19 10:22:25;;;;;;;14.57;14.10;;;20.10;57.30;;;;;;5075284;28;20496;-60
2023/04/19 10:25:16;;;;;;;13.00;12.60;;;20.10;57.20;;;;;;5093407;28;20529;-61
2023/04/19 10:27:45;;;;;;;14.43;13.93;;;20.20;57.10;;;;;;5072925;28;20573;-60
2023/04/19 10:30:21;;;;;;;13.80;13.40;;;20.20;56.90;;;;;;5104670;28;20442;-59
2023/04/19 10:32:52;;;;;;;13.77;13.37;;;20.20;56.70;;;;;;5094266;28;20235;-61
2023/04/19 10:35:21;;;;;;;13.90;13.47;;;20.20;56.90;;;;;;5093357;28;20530;-60
2023/04/19 10:38:06;;;;;;;13.70;13.30;;;20.30;56.80;;;;;;5093373;28;20963;-59
2023/04/19 10:40:56;;;;;;;13.67;13.27;;;20.30;56.70;;;;;;5110326;28;21014;-61
2023/04/19 10:43:24;;;;;;;13.73;13.33;;;20.30;56.60;;;;;;5113619;28;20480;-60
2023/04/19 10:45:52;;;;;;;14.13;13.63;;;20.30;56.50;;;;;;5113565;28;20452;-61
2023/04/19 10:48:37;;;;;;;14.03;13.43;;;20.40;56.50;;;;;;5113289;28;20572;-62
2023/04/19 10:51:11;;;;;;;14.70;14.10;;;20.40;56.40;;;;;;5073206;28;20881;-59
2023/04/19 10:53:45;;;;;;;14.00;13.60;;;20.40;56.30;;;;;;5072746;28;20444;-56
2023/04/19 10:56:13;;;;;;;11.30;11.00;;;20.40;56.80;;;;;;5072175;28;20870;-52
2023/04/19 10:59:20;;;;;;;13.83;13.40;;;20.40;56.10;;;;;;5072113;28;20910;-53
2023/04/19 11:01:51;;;;;;;13.20;12.90;;;20.40;56.10;;;;;;5072546;28;20450;-54
2023/04/19 11:04:19;;;;;;;13.63;13.23;;;20.50;56.00;;;;;;5071604;28;20479;-52
2023/04/19 11:07:01;;;;;;;13.27;12.87;;;20.50;55.90;;;;;;5072053;28;20517;-58
2023/04/19 11:09:30;;;;;;;12.10;11.60;;;20.50;55.90;;;;;;5072153;28;20447;-52
2023/04/19 11:12:02;;;;;;;12.17;11.87;;;20.50;55.90;;;;;;5072191;28;20439;-54
2023/04/19 11:14:34;;;;;;;12.33;12.03;;;20.40;55.80;;;;;;5072182;28;20482;-54
2023/04/19 11:17:13;;;;;;;13.00;12.60;;;20.40;55.90;;;;;;5072065;28;20510;-53
2023/04/19 11:19:42;;;;;;;12.83;12.43;;;20.50;56.00;;;;;;5071925;28;20491;-52
2023/04/19 11:22:09;;;;;;;12.10;11.80;;;20.40;55.90;;;;;;5072037;28;20487;-54
2023/04/19 11:24:36;;;;;;;12.53;12.23;;;20.40;55.90;;;;;;5072096;28;20478;-52
2023/04/19 11:27:08;;;;;;;11.97;11.60;;;20.40;55.90;;;;;;5071583;28;20570;-57
2023/04/19 11:29:35;;;;;;;12.70;12.30;;;20.40;55.90;;;;;;5071758;28;20503;-56
2023/04/19 11:32:04;;;;;;;13.97;13.37;;;20.40;55.90;;;;;;5071877;28;20443;-56
2023/04/19 11:34:36;;;;;;;12.83;12.43;;;20.40;55.90;;;;;;5071898;28;20476;-54
2023/04/19 11:37:03;;;;;;;12.20;11.90;;;20.40;55.90;;;;;;5071748;28;20802;-53
2023/04/19 11:39:30;;;;;;;12.63;12.23;;;20.40;55.80;;;;;;5071603;28;20868;-53
2023/04/19 11:41:58;;;;;;;13.30;12.80;;;20.40;55.80;;;;;;5072209;28;20478;-60
2023/04/19 11:44:25;;;;;;;12.30;12.00;;;20.40;55.80;;;;;;5071800;28;20447;-60
2023/04/19 11:47:04;;;;;;;12.03;11.63;;;20.40;55.80;;;;;;5071512;28;20525;-58
2023/04/19 11:49:33;;;;;;;12.93;12.53;;;20.40;55.80;;;;;;5071502;28;20443;-58
2023/04/19 11:52:02;;;;;;;13.20;12.80;;;20.40;55.70;;;;;;5071669;28;20530;-60
2023/04/19 11:54:29;;;;;;;12.60;12.20;;;20.40;55.70;;;;;;5071724;28;20447;-59
2023/04/19 11:57:02;;;;;;;12.20;11.90;;;20.40;55.70;;;;;;5071347;28;20949;-58
2023/04/19 11:59:29;;;;;;;12.60;12.20;;;20.40;55.80;;;;;;5071523;28;20884;-58
2023/04/19 12:01:56;;;;;;;12.80;12.40;;;20.40;55.70;;;;;;5071513;28;20453;-59
2023/04/19 12:04:24;;;;;;;12.40;12.10;;;20.40;55.70;;;;;;5071423;28;20443;-58
2023/04/19 12:06:58;;;;;;;12.50;12.10;;;20.40;55.70;;;;;;5071242;28;20521;-57
2023/04/19 12:09:26;;;;;;;13.13;12.83;;;20.40;55.60;;;;;;5071330;28;20451;-58
2023/04/19 12:11:53;;;;;;;12.80;12.50;;;20.40;55.60;;;;;;5071364;28;20616;-59
2023/04/19 12:14:22;;;;;;;13.30;12.90;;;20.50;55.60;;;;;;5071341;28;20534;-59
2023/04/19 12:17:07;;;;;;;12.70;12.40;;;20.40;55.60;;;;;;5074278;28;20454;-59
2023/04/19 12:19:43;;;;;;;13.03;12.63;;;20.40;55.50;;;;;;5074726;28;20459;-59
2023/04/19 12:22:11;;;;;;;12.57;12.27;;;20.40;55.50;;;;;;5075533;28;20964;-57
2023/04/19 12:24:39;;;;;;;12.73;12.40;;;20.40;55.60;;;;;;5075433;28;20435;-58
2023/04/19 12:27:06;;;;;;;13.37;12.97;;;20.40;55.50;;;;;;5075171;28;20560;-58
2023/04/19 12:29:33;;;;;;;12.33;12.03;;;20.40;55.50;;;;;;5075257;28;20501;-58
2023/04/19 12:32:01;;;;;;;13.03;12.63;;;20.40;55.50;;;;;;5075359;28;20500;-57
2023/04/19 12:34:28;;;;;;;13.53;13.03;;;20.40;55.40;;;;;;5075221;28;20439;-57